sensor_id;sensor_type;location;lat;lon;timestamp;pressure;altitude;pressure_sealevel;temperature;humidity
53619;BME280;68717;53.040;18.488;2023-04-23T00:00:01;100851.09;;;8.51;100.00
53619;BME280;68717;53.040;18.488;2023-04-23T00:00:15;100845.03;;;8.49;100.00
53619;BME280;68717;53.040;18.488;2023-04-23T00:00:48;100844.06;;;8.50;100.00
53619;BME280;68717;53.040;18.488;2023-04-23T00:01:23;100847.69;;;8.49;100.00
53619;BME280;68717;53.040;18.488;2023-04-23T00:01:39;100846.75;;;8.50;100.00
53619;BME280;68717;53.040;18.488;2023-04-23T00:01:54;100846.75;;;8.50;100.00
53619;BME280;68717;53.040;18.488;2023-04-23T00:02:11;100836.28;;;8.47;100.00
53619;BME280;68717;53.040;18.488;2023-04-23T00:02:25;100846.84;;;8.48;100.00
53619;BME280;68717;53.040;18.488;2023-04-23T00:02:42;100843.34;;;8.48;100.00
53619;BME280;68717;53.040;18.488;2023-04-23T00:02:56;100846.97;;;8.47;100.00
53619;BME280;68717;53.040;18.488;2023-04-23T00:03:10;100844.53;;;8.44;100.00
53619;BME280;68717;53.040;18.488;2023-04-23T00:03:26;100841.03;;;8.43;100.00
53619;BME280;68717;53.040;18.488;2023-04-23T00:03:41;100845.38;;;8.44;100.00
53619;BME280;68717;53.040;18.488;2023-04-23T00:03:56;100841.88;;;8.44;100.00
53619;BME280;68717;53.040;18.488;2023-04-23T00:04:10;100845.53;;;8.43;100.00
53619;BME280;68717;53.040;18.488;2023-04-23T00:04:25;100843.78;;;8.41;100.00
53619;BME280;68717;53.040;18.488;2023-04-23T00:04:48;100845.63;;;8.41;100.00
53619;BME280;68717;53.040;18.488;2023-04-23T00:05:03;100842.84;;;8.43;100.00
53619;BME280;68717;53.040;18.488;2023-04-23T00:05:18;100844.78;;;8.40;100.00
53619;BME280;68717;53.040;18.488;2023-04-23T00:05:32;100844.63;;;8.42;100.00
53619;BME280;68717;53.040;18.488;2023-04-23T00:05:46;100844.63;;;8.42;100.00
53619;BME280;68717;53.040;18.488;2023-04-23T00:06:04;100845.53;;;8.43;100.00
53619;BME280;68717;53.040;18.488;2023-04-23T00:06:17;100847.31;;;8.42;100.00
53619;BME280;68717;53.040;18.488;2023-04-23T00:06:32;100840.19;;;8.43;100.00
53619;BME280;68717;53.040;18.488;2023-04-23T00:06:45;100849.88;;;8.44;100.00
53619;BME280;68717;53.040;18.488;2023-04-23T00:06:59;100849.03;;;8.43;100.00
53619;BME280;68717;53.040;18.488;2023-04-23T00:07:14;100844.53;;;8.44;100.00
53619;BME280;68717;53.040;18.488;2023-04-23T00:07:27;100848.06;;;8.44;100.00
53619;BME280;68717;53.040;18.488;2023-04-23T00:07:41;100843.44;;;8.46;100.00
53619;BME280;68717;53.040;18.488;2023-04-23T00:07:56;100848.69;;;8.48;100.00
53619;BME280;68717;53.040;18.488;2023-04-23T00:08:10;100841.63;;;8.47;100.00
53619;BME280;68717;53.040;18.488;2023-04-23T00:08:23;100848.69;;;8.48;100.00
53619;BME280;68717;53.040;18.488;2023-04-23T00:08:38;100846.84;;;8.48;100.00
53619;BME280;68717;53.040;18.488;2023-04-23T00:08:52;100842.34;;;8.49;100.00
53619;BME280;68717;53.040;18.488;2023-04-23T00:09:07;100843.22;;;8.49;100.00
53619;BME280;68717;53.040;18.488;2023-04-23T00:09:22;100845.03;;;8.49;100.00
53619;BME280;68717;53.040;18.488;2023-04-23T00:09:35;100843.22;;;8.49;100.00
53619;BME280;68717;53.040;18.488;2023-04-23T00:09:49;100846.84;;;8.48;100.00
53619;BME280;68717;53.040;18.488;2023-04-23T00:10:03;100842.25;;;8.50;100.00
53619;BME280;68717;53.040;18.488;2023-04-23T00:10:17;100843.97;;;8.51;100.00
53619;BME280;68717;53.040;18.488;2023-04-23T00:10:31;100837.75;;;8.51;100.00
53619;BME280;68717;53.040;18.488;2023-04-23T00:10:44;100843.97;;;8.51;100.00
53619;BME280;68717;53.040;18.488;2023-04-23T00:10:57;100844.81;;;8.52;100.00
53619;BME280;68717;53.040;18.488;2023-04-23T00:11:10;100841.16;;;8.53;100.00
53619;BME280;68717;53.040;18.488;2023-04-23T00:11:23;100847.34;;;8.53;100.00
53619;BME280;68717;53.040;18.488;2023-04-23T00:11:37;100843.81;;;8.53;100.00
53619;BME280;68717;53.040;18.488;2023-04-23T00:11:50;100834.84;;;8.54;100.00
53619;BME280;68717;53.040;18.488;2023-04-23T00:12:05;100837.53;;;8.54;100.00
53619;BME280;68717;53.040;18.488;2023-04-23T00:12:19;100840.19;;;8.54;100.00
53619;BME280;68717;53.040;18.488;2023-04-23T00:12:32;100837.53;;;8.54;100.00
53619;BME280;68717;53.040;18.488;2023-04-23T00:12:46;100834.84;;;8.54;100.00
53619;BME280;68717;53.040;18.488;2023-04-23T00:12:59;100842.75;;;8.55;100.00
53619;BME280;68717;53.040;18.488;2023-04-23T00:13:13;100840.06;;;8.55;100.00
53619;BME280;68717;53.040;18.488;2023-04-23T00:13:27;100837.38;;;8.55;100.00
53619;BME280;68717;53.040;18.488;2023-04-23T00:13:40;100839.22;;;8.55;100.00
53619;BME280;68717;53.040;18.488;2023-04-23T00:13:53;100837.28;;;8.57;100.00
53619;BME280;68717;53.040;18.488;2023-04-23T00:14:06;100836.44;;;8.56;100.00
53619;BME280;68717;53.040;18.488;2023-04-23T00:14:21;100840.94;;;8.56;100.00
53619;BME280;68717;53.040;18.488;2023-04-23T00:14:35;100840.94;;;8.56;100.00
53619;BME280;68717;53.040;18.488;2023-04-23T00:14:48;100840.94;;;8.56;100.00
53619;BME280;68717;53.040;18.488;2023-04-23T00:15:03;100835.59;;;8.56;100.00
53619;BME280;68717;53.040;18.488;2023-04-23T00:15:16;100834.63;;;8.57;100.00
53619;BME280;68717;53.040;18.488;2023-04-23T00:15:32;100839.00;;;8.58;100.00
53619;BME280;68717;53.040;18.488;2023-04-23T00:15:45;100841.69;;;8.58;100.00
53619;BME280;68717;53.040;18.488;2023-04-23T00:15:59;100839.94;;;8.57;100.00
53619;BME280;68717;53.040;18.488;2023-04-23T00:16:13;100839.00;;;8.58;100.00
53619;BME280;68717;53.040;18.488;2023-04-23T00:16:26;100845.41;;;8.55;100.00
53619;BME280;68717;53.040;18.488;2023-04-23T00:16:41;100836.53;;;8.55;100.00
53619;BME280;68717;53.040;18.488;2023-04-23T00:16:54;100835.59;;;8.56;100.00
53619;BME280;68717;53.040;18.488;2023-04-23T00:17:07;100838.38;;;8.54;100.00
53619;BME280;68717;53.040;18.488;2023-04-23T00:17:20;100838.38;;;8.54;100.00
53619;BME280;68717;53.040;18.488;2023-04-23T00:17:34;100839.47;;;8.52;100.00
53619;BME280;68717;53.040;18.488;2023-04-23T00:17:47;100838.63;;;8.51;100.00
53619;BME280;68717;53.040;18.488;2023-04-23T00:17:59;100834.13;;;8.52;100.00
53619;BME280;68717;53.040;18.488;2023-04-23T00:18:13;100839.47;;;8.52;100.00
53619;BME280;68717;53.040;18.488;2023-04-23T00:18:28;100842.25;;;8.50;100.00
53619;BME280;68717;53.040;18.488;2023-04-23T00:18:41;100837.00;;;8.49;100.00
53619;BME280;68717;53.040;18.488;2023-04-23T00:18:53;100842.34;;;8.49;100.00
53619;BME280;68717;53.040;18.488;2023-04-23T00:19:06;100834.34;;;8.49;100.00
53619;BME280;68717;53.040;18.488;2023-04-23T00:19:19;100836.16;;;8.48;100.00
53619;BME280;68717;53.040;18.488;2023-04-23T00:19:32;100839.69;;;8.49;100.00
53619;BME280;68717;53.040;18.488;2023-04-23T00:19:46;100834.34;;;8.49;100.00
53619;BME280;68717;53.040;18.488;2023-04-23T00:19:59;100838.84;;;8.48;100.00
53619;BME280;68717;53.040;18.488;2023-04-23T00:20:11;100833.50;;;8.48;100.00
53619;BME280;68717;53.040;18.488;2023-04-23T00:20:24;100838.00;;;8.48;100.00
53619;BME280;68717;53.040;18.488;2023-04-23T00:20:37;100836.16;;;8.48;100.00
53619;BME280;68717;53.040;18.488;2023-04-23T00:20:50;100839.69;;;8.49;100.00
53619;BME280;68717;53.040;18.488;2023-04-23T00:21:03;100839.69;;;8.49;100.00
53619;BME280;68717;53.040;18.488;2023-04-23T00:21:17;100836.16;;;8.48;100.00
53619;BME280;68717;53.040;18.488;2023-04-23T00:21:29;100841.50;;;8.48;100.00
53619;BME280;68717;53.040;18.488;2023-04-23T00:21:43;100837.00;;;8.49;100.00
53619;BME280;68717;53.040;18.488;2023-04-23T00:21:56;100839.69;;;8.49;100.00
53619;BME280;68717;53.040;18.488;2023-04-23T00:22:09;100837.00;;;8.49;100.00
53619;BME280;68717;53.040;18.488;2023-04-23T00:22:22;100836.06;;;8.50;100.00
53619;BME280;68717;53.040;18.488;2023-04-23T00:22:34;100831.56;;;8.50;100.00
53619;BME280;68717;53.040;18.488;2023-04-23T00:22:47;100836.06;;;8.50;100.00
53619;BME280;68717;53.040;18.488;2023-04-23T00:23:01;100840.41;;;8.51;100.00
53619;BME280;68717;53.040;18.488;2023-04-23T00:23:14;100833.28;;;8.51;100.00
53619;BME280;68717;53.040;18.488;2023-04-23T00:23:27;100835.94;;;8.51;100.00
53619;BME280;68717;53.040;18.488;2023-04-23T00:23:40;100836.78;;;8.52;100.00
53619;BME280;68717;53.040;18.488;2023-04-23T00:23:53;100838.47;;;8.53;100.00
53619;BME280;68717;53.040;18.488;2023-04-23T00:24:06;100831.31;;;8.53;100.00
53619;BME280;68717;53.040;18.488;2023-04-23T00:24:19;100830.47;;;8.53;100.00
53619;BME280;68717;53.040;18.488;2023-04-23T00:24:33;100840.06;;;8.55;100.00
53619;BME280;68717;53.040;18.488;2023-04-23T00:24:47;100829.38;;;8.55;100.00
53619;BME280;68717;53.040;18.488;2023-04-23T00:25:00;100833.88;;;8.55;100.00
53619;BME280;68717;53.040;18.488;2023-04-23T00:25:13;100835.59;;;8.56;100.00
53619;BME280;68717;53.040;18.488;2023-04-23T00:25:25;100832.78;;;8.57;100.00
53619;BME280;68717;53.040;18.488;2023-04-23T00:25:38;100838.13;;;8.57;100.00
53619;BME280;68717;53.040;18.488;2023-04-23T00:25:51;100833.66;;;8.58;100.00
53619;BME280;68717;53.040;18.488;2023-04-23T00:26:04;100835.34;;;8.59;100.00
53619;BME280;68717;53.040;18.488;2023-04-23T00:26:18;100831.84;;;8.58;100.00
53619;BME280;68717;53.040;18.488;2023-04-23T00:26:30;100832.66;;;8.59;100.00
53619;BME280;68717;53.040;18.488;2023-04-23T00:26:43;100829.16;;;8.58;100.00
53619;BME280;68717;53.040;18.488;2023-04-23T00:26:56;100835.34;;;8.59;100.00
53619;BME280;68717;53.040;18.488;2023-04-23T00:27:09;100831.72;;;8.60;100.00
53619;BME280;68717;53.040;18.488;2023-04-23T00:27:22;100829.91;;;8.60;100.00
53619;BME280;68717;53.040;18.488;2023-04-23T00:27:34;100823.72;;;8.60;100.00
53619;BME280;68717;53.040;18.488;2023-04-23T00:27:47;100826.38;;;8.60;100.00
53619;BME280;68717;53.040;18.488;2023-04-23T00:28:01;100830.75;;;8.61;100.00
53619;BME280;68717;53.040;18.488;2023-04-23T00:28:14;100826.22;;;8.61;100.00
53619;BME280;68717;53.040;18.488;2023-04-23T00:28:27;100820.91;;;8.61;100.00
53619;BME280;68717;53.040;18.488;2023-04-23T00:28:40;100831.59;;;8.61;100.00
53619;BME280;68717;53.040;18.488;2023-04-23T00:28:53;100817.38;;;8.61;100.00
53619;BME280;68717;53.040;18.488;2023-04-23T00:29:05;100829.75;;;8.62;100.00
53619;BME280;68717;53.040;18.488;2023-04-23T00:29:18;100825.28;;;8.62;100.00
53619;BME280;68717;53.040;18.488;2023-04-23T00:29:32;100831.47;;;8.63;100.00
53619;BME280;68717;53.040;18.488;2023-04-23T00:29:44;100826.97;;;8.63;100.00
53619;BME280;68717;53.040;18.488;2023-04-23T00:29:57;100830.50;;;8.64;100.00
53619;BME280;68717;53.040;18.488;2023-04-23T00:30:10;100817.38;;;8.61;100.00
53619;BME280;68717;53.040;18.488;2023-04-23T00:30:23;100823.47;;;8.63;100.00
53619;BME280;68717;53.040;18.488;2023-04-23T00:30:36;100823.47;;;8.63;100.00
53619;BME280;68717;53.040;18.488;2023-04-23T00:30:49;100824.31;;;8.63;100.00
53619;BME280;68717;53.040;18.488;2023-04-23T00:31:05;100823.56;;;8.61;100.00
53619;BME280;68717;53.040;18.488;2023-04-23T00:31:19;100821.72;;;8.62;100.00
53619;BME280;68717;53.040;18.488;2023-04-23T00:31:34;100818.22;;;8.61;100.00
53619;BME280;68717;53.040;18.488;2023-04-23T00:31:47;100824.41;;;8.62;100.00
53619;BME280;68717;53.040;18.488;2023-04-23T00:31:59;100819.06;;;8.62;100.00
53619;BME280;68717;53.040;18.488;2023-04-23T00:32:13;100826.13;;;8.63;100.00
53619;BME280;68717;53.040;18.488;2023-04-23T00:32:26;100826.13;;;8.63;100.00
53619;BME280;68717;53.040;18.488;2023-04-23T00:32:41;100815.69;;;8.60;100.00
53619;BME280;68717;53.040;18.488;2023-04-23T00:32:54;100818.22;;;8.61;100.00
53619;BME280;68717;53.040;18.488;2023-04-23T00:33:07;100826.13;;;8.63;100.00
53619;BME280;68717;53.040;18.488;2023-04-23T00:33:20;100826.13;;;8.63;100.00
53619;BME280;68717;53.040;18.488;2023-04-23T00:33:32;100822.72;;;8.61;100.00
53619;BME280;68717;53.040;18.488;2023-04-23T00:33:45;100827.09;;;8.62;100.00
53619;BME280;68717;53.040;18.488;2023-04-23T00:33:59;100822.47;;;8.64;100.00
53619;BME280;68717;53.040;18.488;2023-04-23T00:34:11;100820.78;;;8.63;100.00
53619;BME280;68717;53.040;18.488;2023-04-23T00:34:24;100817.28;;;8.62;100.00
53619;BME280;68717;53.040;18.488;2023-04-23T00:34:37;100822.59;;;8.62;100.00
53619;BME280;68717;53.040;18.488;2023-04-23T00:34:50;100820.78;;;8.63;100.00
53619;BME280;68717;53.040;18.488;2023-04-23T00:35:04;100818.13;;;8.63;100.00
53619;BME280;68717;53.040;18.488;2023-04-23T00:35:17;100818.22;;;8.61;100.00
53619;BME280;68717;53.040;18.488;2023-04-23T00:35:30;100813.00;;;8.60;100.00
53619;BME280;68717;53.040;18.488;2023-04-23T00:35:44;100816.38;;;8.62;100.00
53619;BME280;68717;53.040;18.488;2023-04-23T00:35:56;100816.53;;;8.60;100.00
53619;BME280;68717;53.040;18.488;2023-04-23T00:36:09;100817.38;;;8.61;100.00
53619;BME280;68717;53.040;18.488;2023-04-23T00:36:22;100814.81;;;8.59;100.00
53619;BME280;68717;53.040;18.488;2023-04-23T00:36:34;100815.69;;;8.60;100.00
53619;BME280;68717;53.040;18.488;2023-04-23T00:36:47;100811.19;;;8.60;100.00
53619;BME280;68717;53.040;18.488;2023-04-23T00:37:01;100813.97;;;8.59;100.00
53619;BME280;68717;53.040;18.488;2023-04-23T00:37:17;100817.63;;;8.58;100.00
53619;BME280;68717;53.040;18.488;2023-04-23T00:37:30;100811.41;;;8.57;100.00
53619;BME280;68717;53.040;18.488;2023-04-23T00:37:42;100819.56;;;8.56;100.00
53619;BME280;68717;53.040;18.488;2023-04-23T00:37:55;100818.69;;;8.55;100.00
53619;BME280;68717;53.040;18.488;2023-04-23T00:38:08;100815.91;;;8.57;100.00
53619;BME280;68717;53.040;18.488;2023-04-23T00:38:22;100815.06;;;8.56;100.00
53619;BME280;68717;53.040;18.488;2023-04-23T00:38:35;100819.56;;;8.56;100.00
53619;BME280;68717;53.040;18.488;2023-04-23T00:38:48;100809.09;;;8.53;100.00
53619;BME280;68717;53.040;18.488;2023-04-23T00:39:01;100819.56;;;8.56;100.00
53619;BME280;68717;53.040;18.488;2023-04-23T00:39:13;100812.50;;;8.55;100.00
53619;BME280;68717;53.040;18.488;2023-04-23T00:39:26;100810.81;;;8.54;100.00
53619;BME280;68717;53.040;18.488;2023-04-23T00:39:39;100813.47;;;8.54;100.00
53619;BME280;68717;53.040;18.488;2023-04-23T00:39:52;100814.44;;;8.53;100.00
53619;BME280;68717;53.040;18.488;2023-04-23T00:40:07;100817.94;;;8.53;100.00
53619;BME280;68717;53.040;18.488;2023-04-23T00:40:20;100806.41;;;8.53;100.00
53619;BME280;68717;53.040;18.488;2023-04-23T00:40:32;100815.41;;;8.52;100.00
53619;BME280;68717;53.040;18.488;2023-04-23T00:40:45;100812.75;;;8.52;100.00
53619;BME280;68717;53.040;18.488;2023-04-23T00:40:58;100812.75;;;8.52;100.00
53619;BME280;68717;53.040;18.488;2023-04-23T00:41:11;100821.72;;;8.51;100.00
53619;BME280;68717;53.040;18.488;2023-04-23T00:41:25;100810.06;;;8.52;100.00
53619;BME280;68717;53.040;18.488;2023-04-23T00:41:40;100815.41;;;8.52;100.00
53619;BME280;68717;53.040;18.488;2023-04-23T00:41:53;100816.38;;;8.51;100.00
53619;BME280;68717;53.040;18.488;2023-04-23T00:42:05;100815.41;;;8.52;100.00
53619;BME280;68717;53.040;18.488;2023-04-23T00:42:24;100812.75;;;8.52;100.00
53619;BME280;68717;53.040;18.488;2023-04-23T00:42:37;100812.75;;;8.52;100.00
53619;BME280;68717;53.040;18.488;2023-04-23T00:42:51;100817.09;;;8.53;100.00
53619;BME280;68717;53.040;18.488;2023-04-23T00:43:06;100809.22;;;8.51;100.00
53619;BME280;68717;53.040;18.488;2023-04-23T00:43:21;100808.25;;;8.52;100.00
53619;BME280;68717;53.040;18.488;2023-04-23T00:43:34;100811.75;;;8.53;100.00
53619;BME280;68717;53.040;18.488;2023-04-23T00:43:47;100810.81;;;8.54;100.00
53619;BME280;68717;53.040;18.488;2023-04-23T00:44:00;100812.59;;;8.53;100.00
53619;BME280;68717;53.040;18.488;2023-04-23T00:44:14;100807.25;;;8.53;100.00
53619;BME280;68717;53.040;18.488;2023-04-23T00:44:27;100809.09;;;8.53;100.00
53619;BME280;68717;53.040;18.488;2023-04-23T00:44:40;100803.75;;;8.53;100.00
53619;BME280;68717;53.040;18.488;2023-04-23T00:44:53;100808.13;;;8.54;100.00
53619;BME280;68717;53.040;18.488;2023-04-23T00:45:07;100810.81;;;8.54;100.00
53619;BME280;68717;53.040;18.488;2023-04-23T00:45:20;100812.50;;;8.55;100.00
53619;BME280;68717;53.040;18.488;2023-04-23T00:45:33;100808.13;;;8.54;100.00
53619;BME280;68717;53.040;18.488;2023-04-23T00:45:47;100805.47;;;8.54;100.00
53619;BME280;68717;53.040;18.488;2023-04-23T00:46:00;100806.31;;;8.54;100.00
53619;BME280;68717;53.040;18.488;2023-04-23T00:46:13;100805.47;;;8.54;100.00
53619;BME280;68717;53.040;18.488;2023-04-23T00:46:28;100808.97;;;8.54;100.00
53619;BME280;68717;53.040;18.488;2023-04-23T00:46:41;100805.47;;;8.54;100.00
53619;BME280;68717;53.040;18.488;2023-04-23T00:46:54;100806.31;;;8.54;100.00
53619;BME280;68717;53.040;18.488;2023-04-23T00:47:07;100808.13;;;8.54;100.00
53619;BME280;68717;53.040;18.488;2023-04-23T00:47:22;100803.63;;;8.54;100.00
53619;BME280;68717;53.040;18.488;2023-04-23T00:47:35;100809.09;;;8.53;100.00
53619;BME280;68717;53.040;18.488;2023-04-23T00:47:50;100811.66;;;8.54;100.00
53619;BME280;68717;53.040;18.488;2023-04-23T00:48:02;100805.56;;;8.52;100.00
53619;BME280;68717;53.040;18.488;2023-04-23T00:48:15;100810.81;;;8.54;100.00
53619;BME280;68717;53.040;18.488;2023-04-23T00:48:28;100806.31;;;8.54;100.00
53619;BME280;68717;53.040;18.488;2023-04-23T00:48:41;100800.97;;;8.54;100.00
53619;BME280;68717;53.040;18.488;2023-04-23T00:48:57;100804.47;;;8.55;100.00
53619;BME280;68717;53.040;18.488;2023-04-23T00:49:09;100804.47;;;8.55;100.00
53619;BME280;68717;53.040;18.488;2023-04-23T00:49:23;100802.78;;;8.54;100.00
53619;BME280;68717;53.040;18.488;2023-04-23T00:49:37;100800.13;;;8.54;100.00
53619;BME280;68717;53.040;18.488;2023-04-23T00:49:50;100806.31;;;8.54;100.00
53619;BME280;68717;53.040;18.488;2023-04-23T00:50:07;100797.44;;;8.54;100.00
53619;BME280;68717;53.040;18.488;2023-04-23T00:50:21;100798.41;;;8.53;100.00
53619;BME280;68717;53.040;18.488;2023-04-23T00:50:34;100798.41;;;8.53;100.00
53619;BME280;68717;53.040;18.488;2023-04-23T00:50:47;100802.91;;;8.52;100.00
53619;BME280;68717;53.040;18.488;2023-04-23T00:51:03;100805.56;;;8.52;100.00
53619;BME280;68717;53.040;18.488;2023-04-23T00:51:16;100799.38;;;8.52;100.00
53619;BME280;68717;53.040;18.488;2023-04-23T00:51:29;100809.22;;;8.51;100.00
53619;BME280;68717;53.040;18.488;2023-04-23T00:51:43;100795.97;;;8.50;100.00
53619;BME280;68717;53.040;18.488;2023-04-23T00:51:57;100798.66;;;8.50;100.00
53619;BME280;68717;53.040;18.488;2023-04-23T00:52:09;100803.00;;;8.51;100.00
53619;BME280;68717;53.040;18.488;2023-04-23T00:52:22;100803.00;;;8.51;100.00
53619;BME280;68717;53.040;18.488;2023-04-23T00:52:35;100797.66;;;8.51;100.00
53619;BME280;68717;53.040;18.488;2023-04-23T00:52:50;100804.00;;;8.50;100.00
53619;BME280;68717;53.040;18.488;2023-04-23T00:53:03;100798.66;;;8.50;100.00
53619;BME280;68717;53.040;18.488;2023-04-23T00:53:15;100800.47;;;8.49;100.00
53619;BME280;68717;53.040;18.488;2023-04-23T00:53:29;100797.81;;;8.49;100.00
53619;BME280;68717;53.040;18.488;2023-04-23T00:53:42;100797.81;;;8.49;100.00
53619;BME280;68717;53.040;18.488;2023-04-23T00:53:55;100799.75;;;8.47;100.00
53619;BME280;68717;53.040;18.488;2023-04-23T00:54:08;100800.59;;;8.48;100.00
53619;BME280;68717;53.040;18.488;2023-04-23T00:54:21;100800.59;;;8.48;100.00
53619;BME280;68717;53.040;18.488;2023-04-23T00:54:34;100795.25;;;8.48;100.00
53619;BME280;68717;53.040;18.488;2023-04-23T00:54:47;100798.88;;;8.47;100.00
53619;BME280;68717;53.040;18.488;2023-04-23T00:54:59;100800.69;;;8.46;100.00
53619;BME280;68717;53.040;18.488;2023-04-23T00:55:12;100798.13;;;8.45;100.00
53619;BME280;68717;53.040;18.488;2023-04-23T00:55:26;100798.03;;;8.46;100.00
53619;BME280;68717;53.040;18.488;2023-04-23T00:55:39;100798.03;;;8.46;100.00
53619;BME280;68717;53.040;18.488;2023-04-23T00:55:52;100794.63;;;8.44;100.00
53619;BME280;68717;53.040;18.488;2023-04-23T00:56:05;100795.47;;;8.45;100.00
53619;BME280;68717;53.040;18.488;2023-04-23T00:56:18;100799.84;;;8.46;100.00
53619;BME280;68717;53.040;18.488;2023-04-23T00:56:32;100803.38;;;8.46;100.00
53619;BME280;68717;53.040;18.488;2023-04-23T00:56:45;100797.19;;;8.46;100.00
53619;BME280;68717;53.040;18.488;2023-04-23T00:56:58;100804.22;;;8.47;100.00
53619;BME280;68717;53.040;18.488;2023-04-23T00:57:12;100797.19;;;8.46;100.00
53619;BME280;68717;53.040;18.488;2023-04-23T00:57:25;100800.81;;;8.45;100.00
53619;BME280;68717;53.040;18.488;2023-04-23T00:57:38;100803.38;;;8.46;100.00
53619;BME280;68717;53.040;18.488;2023-04-23T00:57:51;100799.84;;;8.46;100.00
53619;BME280;68717;53.040;18.488;2023-04-23T00:58:05;100803.38;;;8.46;100.00
53619;BME280;68717;53.040;18.488;2023-04-23T00:58:20;100804.22;;;8.47;100.00
53619;BME280;68717;53.040;18.488;2023-04-23T00:58:33;100797.19;;;8.46;100.00
53619;BME280;68717;53.040;18.488;2023-04-23T00:58:46;100808.72;;;8.46;100.00
53619;BME280;68717;53.040;18.488;2023-04-23T00:58:58;100798.13;;;8.45;100.00
53619;BME280;68717;53.040;18.488;2023-04-23T00:59:14;100802.53;;;8.46;100.00
53619;BME280;68717;53.040;18.488;2023-04-23T00:59:27;100795.47;;;8.45;100.00
53619;BME280;68717;53.040;18.488;2023-04-23T00:59:40;100798.13;;;8.45;100.00
53619;BME280;68717;53.040;18.488;2023-04-23T00:59:54;100795.47;;;8.45;100.00
53619;BME280;68717;53.040;18.488;2023-04-23T01:00:11;100799.97;;;8.44;100.00
53619;BME280;68717;53.040;18.488;2023-04-23T01:00:25;100798.28;;;8.43;100.00
53619;BME280;68717;53.040;18.488;2023-04-23T01:00:42;100793.78;;;8.44;100.00
53619;BME280;68717;53.040;18.488;2023-04-23T01:00:56;100797.44;;;8.43;100.00
53619;BME280;68717;53.040;18.488;2023-04-23T01:01:09;100794.03;;;8.40;100.00
53619;BME280;68717;53.040;18.488;2023-04-23T01:01:24;100796.69;;;8.40;100.00
53619;BME280;68717;53.040;18.488;2023-04-23T01:01:37;100794.13;;;8.39;100.00
53619;BME280;68717;53.040;18.488;2023-04-23T01:01:50;100803.00;;;8.39;100.00
53619;BME280;68717;53.040;18.488;2023-04-23T01:02:03;100794.97;;;8.39;100.00
53619;BME280;68717;53.040;18.488;2023-04-23T01:02:17;100801.31;;;8.38;100.00
53619;BME280;68717;53.040;18.488;2023-04-23T01:02:30;100799.59;;;8.37;100.00
53619;BME280;68717;53.040;18.488;2023-04-23T01:02:44;100790.63;;;8.38;100.00
53619;BME280;68717;53.040;18.488;2023-04-23T01:02:58;100804.94;;;8.37;100.00
53619;BME280;68717;53.040;18.488;2023-04-23T01:03:13;100802.16;;;8.39;100.00
53619;BME280;68717;53.040;18.488;2023-04-23T01:03:26;100800.44;;;8.38;100.00
53619;BME280;68717;53.040;18.488;2023-04-23T01:03:43;100796.91;;;8.37;100.00
53619;BME280;68717;53.040;18.488;2023-04-23T01:03:57;100796.16;;;8.35;100.00
53619;BME280;68717;53.040;18.488;2023-04-23T01:04:10;100800.56;;;8.36;100.00
53619;BME280;68717;53.040;18.488;2023-04-23T01:04:27;100799.59;;;8.37;100.00
53619;BME280;68717;53.040;18.488;2023-04-23T01:04:42;100796.91;;;8.37;100.00
53619;BME280;68717;53.040;18.488;2023-04-23T01:04:57;100796.91;;;8.37;100.00
53619;BME280;68717;53.040;18.488;2023-04-23T01:05:13;100801.31;;;8.38;100.00
53619;BME280;68717;53.040;18.488;2023-04-23T01:05:27;100801.31;;;8.38;100.00
53619;BME280;68717;53.040;18.488;2023-04-23T01:05:41;100798.75;;;8.37;100.00
53619;BME280;68717;53.040;18.488;2023-04-23T01:05:54;100797.91;;;8.36;100.00
53619;BME280;68717;53.040;18.488;2023-04-23T01:06:08;100797.91;;;8.36;100.00
53619;BME280;68717;53.040;18.488;2023-04-23T01:06:21;100798.75;;;8.37;100.00
53619;BME280;68717;53.040;18.488;2023-04-23T01:06:36;100789.00;;;8.36;100.00
53619;BME280;68717;53.040;18.488;2023-04-23T01:06:49;100797.91;;;8.36;100.00
53619;BME280;68717;53.040;18.488;2023-04-23T01:07:02;100795.22;;;8.36;100.00
53619;BME280;68717;53.040;18.488;2023-04-23T01:07:15;100797.91;;;8.36;100.00
53619;BME280;68717;53.040;18.488;2023-04-23T01:07:28;100795.22;;;8.36;100.00
53619;BME280;68717;53.040;18.488;2023-04-23T01:07:42;100798.84;;;8.35;100.00
53619;BME280;68717;53.040;18.488;2023-04-23T01:07:56;100796.16;;;8.35;100.00
53619;BME280;68717;53.040;18.488;2023-04-23T01:08:14;100792.66;;;8.35;100.00
53619;BME280;68717;53.040;18.488;2023-04-23T01:08:27;100787.31;;;8.35;100.00
53619;BME280;68717;53.040;18.488;2023-04-23T01:08:41;100797.16;;;8.34;100.00
53619;BME280;68717;53.040;18.488;2023-04-23T01:08:55;100790.00;;;8.35;100.00
53619;BME280;68717;53.040;18.488;2023-04-23T01:09:07;100798.84;;;8.35;100.00
53619;BME280;68717;53.040;18.488;2023-04-23T01:09:21;100794.50;;;8.34;100.00
53619;BME280;68717;53.040;18.488;2023-04-23T01:09:35;100798.97;;;8.34;100.00
53619;BME280;68717;53.040;18.488;2023-04-23T01:09:49;100791.09;;;8.32;100.00
53619;BME280;68717;53.040;18.488;2023-04-23T01:10:02;100797.16;;;8.34;100.00
53619;BME280;68717;53.040;18.488;2023-04-23T01:10:16;100797.16;;;8.34;100.00
53619;BME280;68717;53.040;18.488;2023-04-23T01:10:29;100784.75;;;8.33;100.00
53619;BME280;68717;53.040;18.488;2023-04-23T01:10:44;100797.16;;;8.34;100.00
53619;BME280;68717;53.040;18.488;2023-04-23T01:10:58;100790.09;;;8.33;100.00